createdAt,value
2019-01-03T00:00:24.133Z,0.00
2019-01-03T00:01:24.019Z,0.00
2019-01-03T00:02:24.013Z,0.00
2019-01-03T00:03:24.011Z,0.00
2019-01-03T00:04:23.891Z,0.00
2019-01-03T00:05:23.889Z,0.00
2019-01-03T00:06:23.780Z,0.00
2019-01-03T00:07:23.777Z,0.00
2019-01-03T00:08:23.734Z,0.00
2019-01-03T00:09:23.653Z,0.00
2019-01-03T00:10:23.656Z,0.00
2019-01-03T00:11:23.537Z,0.00
2019-01-03T00:12:23.538Z,0.00
2019-01-03T00:13:23.410Z,0.00
2019-01-03T00:14:23.409Z,0.00
2019-01-03T00:15:23.370Z,0.00
2019-01-03T00:16:23.294Z,0.00
2019-01-03T00:17:23.287Z,0.00
2019-01-03T00:18:23.173Z,0.00
2019-01-03T00:19:23.169Z,0.00
2019-01-03T00:20:23.049Z,0.00
2019-01-03T00:21:23.047Z,0.00
2019-01-03T00:22:23.048Z,0.00
2019-01-03T00:23:22.929Z,0.00
2019-01-03T00:24:22.936Z,0.00
2019-01-03T00:25:22.809Z,0.00
2019-01-03T00:26:22.808Z,0.00
2019-01-03T00:27:22.689Z,0.00
2019-01-03T00:28:22.688Z,0.00
2019-01-03T00:29:22.687Z,0.00
2019-01-03T00:30:22.570Z,0.00
2019-01-03T00:31:22.567Z,0.00
2019-01-03T00:32:22.445Z,0.00
2019-01-03T00:33:22.448Z,0.00
2019-01-03T00:34:22.408Z,0.00
2019-01-03T00:35:22.325Z,0.00
2019-01-03T00:36:22.323Z,0.00
2019-01-03T00:37:22.205Z,0.00
2019-01-03T00:38:22.213Z,0.00
2019-01-03T00:39:22.096Z,0.00
2019-01-03T00:40:22.087Z,0.00
2019-01-03T00:41:22.086Z,0.00
2019-01-03T00:42:21.965Z,0.00
2019-01-03T00:43:21.968Z,0.00
2019-01-03T00:44:21.855Z,0.00
2019-01-03T00:45:21.840Z,0.00
2019-01-03T00:46:21.808Z,0.00
2019-01-03T00:47:21.724Z,0.00
2019-01-03T00:48:21.723Z,0.00
2019-01-03T00:49:21.607Z,0.00
2019-01-03T00:50:21.604Z,0.00
2019-01-03T00:51:21.485Z,0.00
2019-01-03T00:52:21.479Z,0.00
2019-01-03T00:53:21.482Z,0.00
2019-01-03T00:54:21.367Z,0.00
2019-01-03T00:55:21.370Z,0.00
2019-01-03T00:56:21.240Z,0.00
2019-01-03T00:57:21.238Z,0.00
2019-01-03T00:58:21.119Z,0.00
2019-01-03T00:59:21.120Z,0.00
2019-01-03T01:00:21.119Z,0.00
2019-01-03T01:01:21.002Z,0.00
2019-01-03T01:02:21.001Z,0.00
2019-01-03T01:03:20.884Z,0.00
2019-01-03T01:04:20.878Z,0.00
2019-01-03T01:05:20.879Z,0.00
2019-01-03T01:06:20.759Z,0.00
2019-01-03T01:07:20.765Z,0.00
2019-01-03T01:08:20.637Z,0.00
2019-01-03T01:09:20.637Z,0.00
2019-01-03T01:10:20.517Z,0.00
2019-01-03T01:11:20.521Z,0.00
2019-01-03T01:12:20.518Z,0.00
2019-01-03T01:13:20.395Z,0.00
2019-01-03T01:14:20.395Z,0.00
2019-01-03T01:15:20.285Z,0.00
2019-01-03T01:16:20.274Z,0.00
2019-01-03T01:17:20.237Z,0.00
2019-01-03T01:18:20.156Z,0.00
2019-01-03T01:19:20.159Z,0.00
2019-01-03T01:20:20.035Z,0.00
2019-01-03T01:21:20.034Z,0.00
2019-01-03T01:22:19.918Z,0.00
2019-01-03T01:23:19.922Z,0.00
2019-01-03T01:24:19.919Z,0.00
2019-01-03T01:25:19.792Z,0.00
2019-01-03T01:26:19.797Z,0.00
2019-01-03T01:27:19.674Z,0.00
2019-01-03T01:28:19.672Z,0.00
2019-01-03T01:29:19.637Z,0.00
2019-01-03T01:30:19.552Z,0.00
2019-01-03T01:31:19.555Z,0.00
2019-01-03T01:32:19.435Z,0.00
2019-01-03T01:33:19.432Z,0.00
2019-01-03T01:34:19.311Z,0.00
2019-01-03T01:35:19.313Z,0.00
2019-01-03T01:36:19.313Z,0.00
2019-01-03T01:37:19.194Z,0.00
2019-01-03T01:38:19.197Z,0.00
2019-01-03T01:39:19.071Z,0.00
2019-01-03T01:40:19.085Z,0.00
2019-01-03T01:41:19.035Z,0.00
2019-01-03T01:42:18.958Z,0.00
2019-01-03T01:43:18.951Z,0.00
2019-01-03T01:44:18.839Z,0.00
2019-01-03T01:45:18.843Z,0.00
2019-01-03T01:46:18.712Z,0.00
2019-01-03T01:47:18.717Z,0.00
2019-01-03T01:48:18.711Z,0.00
2019-01-03T01:49:18.606Z,0.00
2019-01-03T01:50:18.672Z,0.00
2019-01-03T01:51:18.468Z,0.00
2019-01-03T01:52:18.474Z,0.00
2019-01-03T01:53:18.348Z,0.00
2019-01-03T01:54:18.351Z,0.00
2019-01-03T01:55:18.346Z,0.00
2019-01-03T01:56:18.228Z,0.00
2019-01-03T01:57:18.227Z,0.00
2019-01-03T01:58:18.209Z,0.00
2019-01-03T01:59:18.107Z,0.00
2019-01-03T02:00:18.105Z,0.00
2019-01-03T02:01:17.983Z,0.00
2019-01-03T02:02:18.070Z,0.00
2019-01-03T02:03:17.867Z,0.00
2019-01-03T02:04:17.867Z,0.00
2019-01-03T02:05:17.745Z,0.00
2019-01-03T02:06:17.755Z,0.00
2019-01-03T02:07:17.748Z,0.00
2019-01-03T02:08:17.634Z,0.00
2019-01-03T02:09:17.629Z,0.00
2019-01-03T02:10:17.522Z,0.00
2019-01-03T02:11:17.514Z,0.00
2019-01-03T02:12:17.513Z,0.00
2019-01-03T02:13:17.392Z,0.00
2019-01-03T02:14:17.387Z,0.00
2019-01-03T02:15:17.267Z,0.00
2019-01-03T02:16:17.262Z,0.00
2019-01-03T02:17:17.140Z,0.00
2019-01-03T02:18:17.147Z,0.00
2019-01-03T02:19:17.151Z,0.00
2019-01-03T02:20:17.026Z,0.00
2019-01-03T02:21:17.029Z,0.00
2019-01-03T02:22:16.913Z,0.00
2019-01-03T02:23:16.900Z,0.00
2019-01-03T02:24:16.898Z,0.00
2019-01-03T02:25:16.783Z,0.00
2019-01-03T02:26:16.784Z,0.00
2019-01-03T02:27:16.667Z,0.00
2019-01-03T02:28:16.667Z,0.00
2019-01-03T02:29:16.545Z,0.00
2019-01-03T02:30:16.630Z,0.00
2019-01-03T02:31:16.545Z,0.00
2019-01-03T02:32:16.430Z,0.00
2019-01-03T02:33:16.500Z,0.00
2019-01-03T02:34:16.312Z,0.00
2019-01-03T02:35:16.316Z,0.00
2019-01-03T02:36:16.312Z,0.00
2019-01-03T02:37:16.184Z,0.00
2019-01-03T02:38:16.194Z,0.00
2019-01-03T02:39:16.068Z,0.00
2019-01-03T02:40:16.059Z,0.00
2019-01-03T02:41:15.942Z,0.00
2019-01-03T02:42:15.936Z,0.00
2019-01-03T02:43:15.941Z,0.00
2019-01-03T02:44:15.817Z,0.00
2019-01-03T02:45:15.820Z,0.00
2019-01-03T02:46:15.696Z,0.00
2019-01-03T02:47:15.777Z,0.00
2019-01-03T02:48:15.656Z,0.00
2019-01-03T02:49:15.576Z,0.00
2019-01-03T02:50:15.580Z,0.00
2019-01-03T02:51:15.455Z,0.00
2019-01-03T02:52:15.460Z,0.00
2019-01-03T02:53:15.333Z,0.00
2019-01-03T02:54:15.335Z,0.00
2019-01-03T02:55:15.347Z,0.00
2019-01-03T02:56:15.214Z,0.00
2019-01-03T02:57:15.219Z,0.00
2019-01-03T02:58:15.109Z,0.00
2019-01-03T02:59:15.094Z,0.00
2019-01-03T03:00:15.088Z,0.00
2019-01-03T03:01:14.973Z,0.00
2019-01-03T03:02:14.985Z,0.00
2019-01-03T03:03:14.856Z,0.00
2019-01-03T03:04:14.866Z,0.00
2019-01-03T03:05:14.734Z,0.00
2019-01-03T03:06:14.732Z,0.00
2019-01-03T03:07:14.740Z,0.00
2019-01-03T03:08:14.611Z,0.00
2019-01-03T03:09:14.609Z,0.00
2019-01-03T03:10:14.498Z,0.00
2019-01-03T03:11:14.492Z,0.00
2019-01-03T03:12:14.491Z,0.00
2019-01-03T03:13:14.373Z,0.00
2019-01-03T03:14:14.375Z,0.00
2019-01-03T03:15:14.256Z,0.00
2019-01-03T03:16:14.262Z,0.00
2019-01-03T03:17:14.134Z,0.00
2019-01-03T03:18:14.139Z,0.00
2019-01-03T03:19:14.132Z,0.00
2019-01-03T03:20:14.015Z,0.00
2019-01-03T03:21:14.015Z,0.00
2019-01-03T03:22:13.899Z,0.00
2019-01-03T03:23:13.900Z,0.00
2019-01-03T03:24:13.885Z,0.00
2019-01-03T03:25:16.418Z,0.00
2019-01-03T03:26:13.770Z,0.00
2019-01-03T03:27:13.647Z,0.00
2019-01-03T03:28:13.653Z,0.00
2019-01-03T03:29:13.886Z,0.00
2019-01-03T03:30:13.532Z,0.00
2019-01-03T03:31:13.536Z,0.00
2019-01-03T03:32:13.410Z,0.00
2019-01-03T03:33:13.407Z,0.00
2019-01-03T03:34:13.304Z,0.00
2019-01-03T03:35:13.289Z,0.00
2019-01-03T03:36:13.284Z,0.00
2019-01-03T03:37:13.176Z,0.00
2019-01-03T03:38:13.170Z,0.00
2019-01-03T03:39:13.044Z,0.00
2019-01-03T03:40:13.055Z,0.00
2019-01-03T03:41:12.932Z,0.00
2019-01-03T03:42:12.931Z,0.00
2019-01-03T03:43:12.921Z,0.00
2019-01-03T03:44:12.924Z,0.00
2019-01-03T03:45:12.938Z,0.00
2019-01-03T03:46:12.885Z,0.00
2019-01-03T03:47:12.806Z,0.00
2019-01-03T03:48:12.685Z,0.00
2019-01-03T03:49:12.564Z,0.00
2019-01-03T03:50:12.565Z,0.00
2019-01-03T03:51:12.441Z,0.00
2019-01-03T03:52:12.447Z,0.00
2019-01-03T03:53:12.436Z,0.00
2019-01-03T03:54:12.336Z,0.00
2019-01-03T03:55:12.331Z,0.00
2019-01-03T03:56:12.205Z,0.00
2019-01-03T03:57:12.208Z,0.00
2019-01-03T03:58:12.079Z,0.00
2019-01-03T03:59:12.083Z,0.00
2019-01-03T04:00:12.088Z,0.00
2019-01-03T04:01:11.971Z,0.00
2019-01-03T04:02:11.970Z,0.00
2019-01-03T04:03:11.841Z,0.00
2019-01-03T04:04:11.844Z,0.00
2019-01-03T04:05:11.843Z,0.00
2019-01-03T04:06:11.722Z,0.00
2019-01-03T04:07:11.717Z,0.00
2019-01-03T04:08:11.601Z,0.00
2019-01-03T04:09:11.601Z,0.00
2019-01-03T04:10:11.475Z,0.00
2019-01-03T04:11:11.477Z,0.00
2019-01-03T04:12:11.477Z,0.00
2019-01-03T04:13:11.357Z,0.00
2019-01-03T04:14:11.363Z,0.00
2019-01-03T04:15:11.236Z,0.00
2019-01-03T04:16:11.237Z,0.00
2019-01-03T04:17:11.239Z,0.00
2019-01-03T04:18:11.116Z,0.00
2019-01-03T04:19:11.115Z,0.00
2019-01-03T04:20:10.995Z,0.00
2019-01-03T04:21:10.994Z,0.00
2019-01-03T04:22:10.994Z,0.00
2019-01-03T04:23:10.873Z,0.00
2019-01-03T04:24:10.879Z,0.00
2019-01-03T04:25:10.756Z,0.00
2019-01-03T04:26:10.752Z,0.00
2019-01-03T04:27:10.636Z,0.00
2019-01-03T04:28:10.632Z,0.00
2019-01-03T04:29:10.637Z,0.00
2019-01-03T04:30:10.530Z,0.00
2019-01-03T04:31:10.520Z,0.00
2019-01-03T04:32:10.394Z,0.00
2019-01-03T04:33:10.394Z,0.00
2019-01-03T04:34:10.395Z,0.00
2019-01-03T04:35:10.278Z,0.00
2019-01-03T04:36:10.276Z,0.00
2019-01-03T04:37:10.152Z,0.00
2019-01-03T04:38:10.155Z,0.00
2019-01-03T04:39:10.121Z,0.00
2019-01-03T04:40:10.039Z,0.00
2019-01-03T04:41:10.032Z,0.00
2019-01-03T04:42:09.919Z,0.00
2019-01-03T04:43:09.910Z,0.00
2019-01-03T04:44:09.793Z,0.00
2019-01-03T04:45:09.797Z,0.00
2019-01-03T04:46:09.805Z,0.00
2019-01-03T04:47:09.683Z,0.00
2019-01-03T04:48:09.671Z,0.00
2019-01-03T04:49:09.554Z,0.00
2019-01-03T04:50:09.559Z,0.00
2019-01-03T04:51:09.558Z,0.00
2019-01-03T04:52:09.429Z,0.00
2019-01-03T04:53:09.431Z,0.00
2019-01-03T04:54:09.315Z,0.00
2019-01-03T04:55:09.309Z,0.00
2019-01-03T04:56:09.186Z,0.00
2019-01-03T04:57:09.230Z,0.00
2019-01-03T04:58:09.197Z,0.00
2019-01-03T04:59:09.068Z,0.00
2019-01-03T05:00:09.155Z,0.00
2019-01-03T05:01:08.952Z,0.00
2019-01-03T05:02:08.952Z,0.00
2019-01-03T05:03:08.953Z,0.00
2019-01-03T05:04:08.827Z,0.00
2019-01-03T05:05:08.831Z,0.00
2019-01-03T05:06:08.715Z,0.00
2019-01-03T05:07:08.711Z,0.00
2019-01-03T05:08:08.704Z,0.00
2019-01-03T05:09:08.586Z,0.00
2019-01-03T05:10:08.589Z,0.00
2019-01-03T05:11:08.466Z,0.00
2019-01-03T05:12:08.467Z,0.00
2019-01-03T05:13:08.344Z,0.00
2019-01-03T05:14:08.344Z,0.00
2019-01-03T05:15:08.341Z,0.00
2019-01-03T05:16:08.229Z,0.00
2019-01-03T05:17:08.224Z,0.00
2019-01-03T05:18:08.112Z,0.00
2019-01-03T05:19:08.109Z,0.00
2019-01-03T05:20:08.100Z,0.00
2019-01-03T05:21:07.983Z,0.00
2019-01-03T05:22:07.983Z,0.00
2019-01-03T05:23:07.867Z,0.00
2019-01-03T05:24:07.861Z,0.00
2019-01-03T05:25:07.861Z,0.00
2019-01-03T05:26:07.742Z,0.00
2019-01-03T05:27:07.743Z,0.00
2019-01-03T05:28:07.639Z,0.00
2019-01-03T05:29:07.627Z,0.00
2019-01-03T05:30:07.506Z,0.00
2019-01-03T05:31:07.507Z,0.00
2019-01-03T05:32:07.498Z,0.00
2019-01-03T05:33:07.387Z,0.00
2019-01-03T05:34:07.380Z,0.00
2019-01-03T05:35:07.267Z,0.00
2019-01-03T05:36:07.261Z,0.00
2019-01-03T05:37:07.262Z,0.00
2019-01-03T05:38:07.141Z,0.00
2019-01-03T05:39:07.143Z,0.00
2019-01-03T05:40:07.027Z,0.00
2019-01-03T05:41:07.018Z,0.00
2019-01-03T05:42:06.979Z,0.00
2019-01-03T05:43:06.897Z,0.00
2019-01-03T05:44:06.898Z,0.00
2019-01-03T05:45:06.783Z,0.00
2019-01-03T05:46:06.778Z,0.00
2019-01-03T05:47:06.662Z,0.00
2019-01-03T05:48:06.655Z,0.00
2019-01-03T05:49:06.659Z,0.00
2019-01-03T05:50:06.539Z,0.00
2019-01-03T05:51:06.535Z,0.00
2019-01-03T05:52:06.417Z,0.00
2019-01-03T05:53:06.419Z,0.00
2019-01-03T05:54:06.417Z,0.00
2019-01-03T05:55:06.302Z,0.00
2019-01-03T05:56:06.295Z,0.00
2019-01-03T05:57:06.175Z,0.00
2019-01-03T05:58:06.178Z,0.00
2019-01-03T05:59:06.136Z,0.00
2019-01-03T06:00:06.067Z,0.00
2019-01-03T06:01:06.055Z,0.00
2019-01-03T06:02:05.933Z,0.00
2019-01-03T06:03:06.015Z,0.00
2019-01-03T06:04:05.812Z,0.00
2019-01-03T06:05:05.813Z,0.00
2019-01-03T06:06:05.815Z,0.00
2019-01-03T06:07:05.702Z,0.00
2019-01-03T06:08:05.693Z,0.00
2019-01-03T06:09:05.577Z,0.00
2019-01-03T06:10:05.581Z,0.00
2019-01-03T06:11:05.575Z,0.00
2019-01-03T06:12:05.549Z,0.00
2019-01-03T06:13:05.454Z,0.00
2019-01-03T06:14:05.337Z,0.00
2019-01-03T06:15:05.338Z,0.00
2019-01-03T06:16:05.333Z,0.00
2019-01-03T06:17:05.209Z,0.00
2019-01-03T06:18:05.216Z,0.00
2019-01-03T06:19:05.092Z,0.00
2019-01-03T06:20:05.093Z,0.00
2019-01-03T06:21:04.972Z,0.00
2019-01-03T06:22:04.971Z,0.00
2019-01-03T06:23:04.973Z,0.00
2019-01-03T06:24:04.857Z,0.00
2019-01-03T06:25:04.852Z,0.00
2019-01-03T06:26:04.728Z,0.00
2019-01-03T06:27:04.728Z,0.00
2019-01-03T06:28:04.728Z,0.00
2019-01-03T06:29:04.606Z,0.00
2019-01-03T06:30:04.611Z,0.00
2019-01-03T06:31:04.490Z,0.00
2019-01-03T06:32:04.487Z,0.00
2019-01-03T06:33:04.483Z,0.00
2019-01-03T06:34:04.370Z,0.00
2019-01-03T06:35:04.368Z,0.00
2019-01-03T06:36:04.260Z,0.00
2019-01-03T06:37:04.251Z,0.00
2019-01-03T06:38:04.129Z,0.00
2019-01-03T06:39:04.124Z,0.00
2019-01-03T06:40:04.126Z,0.00
2019-01-03T06:41:04.006Z,0.00
2019-01-03T06:42:04.007Z,0.00
2019-01-03T06:43:03.884Z,0.00
2019-01-03T06:44:03.966Z,0.00
2019-01-03T06:45:03.884Z,0.00
2019-01-03T06:46:03.769Z,0.00
2019-01-03T06:47:03.765Z,0.00
2019-01-03T06:48:03.641Z,0.00
2019-01-03T06:49:03.658Z,0.00
2019-01-03T06:50:03.644Z,0.00
2019-01-03T06:51:03.527Z,0.00
2019-01-03T06:52:03.522Z,0.00
2019-01-03T06:53:03.406Z,0.00
2019-01-03T06:54:03.412Z,0.00
2019-01-03T06:55:03.404Z,0.00
2019-01-03T06:56:03.288Z,0.00
2019-01-03T06:57:03.287Z,0.00
2019-01-03T06:58:03.172Z,0.00
2019-01-03T06:59:03.164Z,0.00
2019-01-03T07:00:03.043Z,0.00
2019-01-03T07:01:03.045Z,0.00
2019-01-03T07:02:03.043Z,0.00
2019-01-03T07:03:02.923Z,0.00
2019-01-03T07:04:02.924Z,0.00
2019-01-03T07:05:02.807Z,0.00
2019-01-03T07:06:02.799Z,0.00
2019-01-03T07:07:02.761Z,0.00
2019-01-03T07:08:02.687Z,0.00
2019-01-03T07:09:02.680Z,0.00
2019-01-03T07:10:02.617Z,4.00
2019-01-03T07:11:02.568Z,4.00
2019-01-03T07:12:02.439Z,4.00
2019-01-03T07:13:02.441Z,0.00
2019-01-03T07:14:02.439Z,4.00
2019-01-03T07:15:02.318Z,4.00
2019-01-03T07:16:02.328Z,4.00
2019-01-03T07:17:02.205Z,4.00
2019-01-03T07:18:02.200Z,4.00
2019-01-03T07:19:02.204Z,8.00
2019-01-03T07:20:02.075Z,4.00
2019-01-03T07:21:02.075Z,8.00
2019-01-03T07:22:01.959Z,8.00
2019-01-03T07:23:01.960Z,12.00
2019-01-03T07:24:01.921Z,8.00
2019-01-03T07:25:01.834Z,12.00
2019-01-03T07:26:01.834Z,12.00
2019-01-03T07:27:01.715Z,12.00
2019-01-03T07:28:01.715Z,16.00
2019-01-03T07:29:01.606Z,20.00
2019-01-03T07:30:01.597Z,24.00
2019-01-03T07:31:01.593Z,28.00
2019-01-03T07:32:01.475Z,32.00
2019-01-03T07:33:01.475Z,36.00
2019-01-03T07:34:01.367Z,40.00
2019-01-03T07:35:01.351Z,40.00
2019-01-03T07:36:01.356Z,44.00
2019-01-03T07:37:01.241Z,48.00
2019-01-03T07:38:01.231Z,48.00
2019-01-03T07:39:01.114Z,56.00
2019-01-03T07:40:01.116Z,56.00
2019-01-03T07:41:00.991Z,60.00
2019-01-03T07:42:00.993Z,60.00
2019-01-03T07:43:01.003Z,64.00
2019-01-03T07:44:00.878Z,68.00
2019-01-03T07:45:00.874Z,68.00
2019-01-03T07:46:00.765Z,76.00
2019-01-03T07:47:00.757Z,84.00
2019-01-03T07:48:00.766Z,96.00
2019-01-03T07:49:00.630Z,108.00
2019-01-03T07:50:00.637Z,120.00
2019-01-03T07:51:00.516Z,128.00
2019-01-03T07:52:00.515Z,140.00
2019-01-03T07:53:00.517Z,148.00
2019-01-03T07:54:00.389Z,164.00
2019-01-03T07:55:00.391Z,184.00
2019-01-03T07:56:00.277Z,204.00
2019-01-03T07:57:00.275Z,224.00
2019-01-03T07:58:00.145Z,240.00
2019-01-03T07:59:00.155Z,252.00
2019-01-03T08:00:00.235Z,264.00
2019-01-03T08:01:00.027Z,268.00
2019-01-03T08:02:00.035Z,260.00
2019-01-03T08:02:59.906Z,248.00
2019-01-03T08:03:59.905Z,252.00
2019-01-03T08:04:59.913Z,260.00
2019-01-03T08:05:59.786Z,264.00
2019-01-03T08:06:59.790Z,264.00
2019-01-03T08:07:59.665Z,268.00
2019-01-03T08:08:59.667Z,276.00
2019-01-03T08:09:59.667Z,288.00
2019-01-03T08:10:59.544Z,292.00
2019-01-03T08:11:59.544Z,300.00
2019-01-03T08:12:59.424Z,292.00
2019-01-03T08:13:59.426Z,284.00
2019-01-03T08:14:59.304Z,288.00
2019-01-03T08:15:59.312Z,304.00
2019-01-03T08:16:59.304Z,316.00
2019-01-03T08:17:59.183Z,324.00
2019-01-03T08:18:59.185Z,308.00
2019-01-03T08:19:59.074Z,320.00
2019-01-03T08:20:59.067Z,324.00
2019-01-03T08:21:59.062Z,332.00
2019-01-03T08:22:58.945Z,352.00
2019-01-03T08:23:58.942Z,368.00
2019-01-03T08:24:58.821Z,388.00
2019-01-03T08:25:58.825Z,408.00
2019-01-03T08:26:58.821Z,424.00
2019-01-03T08:27:59.596Z,444.00
2019-01-03T08:28:58.701Z,480.00
2019-01-03T08:29:58.578Z,492.00
2019-01-03T08:30:58.581Z,520.00
2019-01-03T08:31:58.467Z,572.00
2019-01-03T08:32:58.463Z,608.00
2019-01-03T08:33:58.458Z,628.00
2019-01-03T08:34:58.337Z,636.00
2019-01-03T08:35:58.343Z,640.00
2019-01-03T08:36:58.216Z,632.00
2019-01-03T08:37:58.232Z,620.00
2019-01-03T08:38:58.219Z,632.00
2019-01-03T08:39:58.231Z,636.00
2019-01-03T08:40:58.107Z,648.00
2019-01-03T08:41:57.982Z,660.00
2019-01-03T08:42:57.990Z,688.00
2019-01-03T08:43:57.985Z,712.00
2019-01-03T08:44:57.858Z,724.00
2019-01-03T08:45:57.872Z,748.00
2019-01-03T08:46:57.737Z,772.00
2019-01-03T08:47:57.743Z,792.00
2019-01-03T08:49:00.620Z,812.00
2019-01-03T08:49:57.622Z,840.00
2019-01-03T08:50:57.617Z,868.00
2019-01-03T08:51:57.496Z,876.00
2019-01-03T08:52:57.504Z,844.00
2019-01-03T08:53:57.381Z,784.00
2019-01-03T08:54:57.373Z,768.00
2019-01-03T08:55:57.373Z,764.00
2019-01-03T08:56:57.254Z,784.00
2019-01-03T08:57:57.174Z,816.00
2019-01-03T08:58:57.124Z,840.00
2019-01-03T08:59:57.072Z,860.00
2019-01-03T09:00:57.024Z,876.00
2019-01-03T09:01:56.975Z,892.00
2019-01-03T09:02:56.927Z,888.00
2019-01-03T09:03:56.877Z,852.00
2019-01-03T09:04:56.829Z,844.00
2019-01-03T09:05:56.840Z,840.00
2019-01-03T09:06:56.729Z,844.00
2019-01-03T09:07:56.685Z,896.00
2019-01-03T09:08:56.639Z,916.00
2019-01-03T09:09:56.586Z,940.00
2019-01-03T09:10:56.533Z,936.00
2019-01-03T09:11:56.489Z,952.00
2019-01-03T09:12:56.448Z,932.00
2019-01-03T09:13:56.399Z,960.00
2019-01-03T09:14:56.343Z,1008.00
2019-01-03T09:15:56.293Z,1036.00
2019-01-03T09:16:56.239Z,1032.00
2019-01-03T09:17:56.188Z,1068.00
2019-01-03T09:18:56.147Z,1136.00
2019-01-03T09:19:56.091Z,1152.00
2019-01-03T09:20:56.042Z,1144.00
2019-01-03T09:21:56.037Z,1076.00
2019-01-03T09:22:56.038Z,1044.00
2019-01-03T09:23:56.416Z,1000.00
2019-01-03T09:24:55.911Z,964.00
2019-01-03T09:25:55.918Z,972.00
2019-01-03T09:26:55.794Z,988.00
2019-01-03T09:27:55.792Z,968.00
2019-01-03T09:28:55.674Z,908.00
2019-01-03T09:29:55.669Z,888.00
2019-01-03T09:30:55.550Z,944.00
2019-01-03T09:31:55.552Z,1008.00
2019-01-03T09:32:55.559Z,1116.00
2019-01-03T09:33:55.437Z,1120.00
2019-01-03T09:34:55.440Z,1092.00
2019-01-03T09:35:55.309Z,1084.00
2019-01-03T09:36:55.308Z,1124.00
2019-01-03T09:37:55.321Z,1092.00
2019-01-03T09:38:55.190Z,1048.00
2019-01-03T09:39:55.199Z,1100.00
2019-01-03T09:40:55.072Z,1224.00
2019-01-03T09:41:55.070Z,1304.00
2019-01-03T09:42:55.069Z,1352.00
2019-01-03T09:43:54.951Z,1380.00
2019-01-03T09:44:54.946Z,1448.00
2019-01-03T09:45:54.989Z,1492.00
2019-01-03T09:46:54.832Z,1496.00
2019-01-03T09:47:54.829Z,1504.00
2019-01-03T09:48:54.720Z,1536.00
2019-01-03T09:49:54.709Z,1576.00
2019-01-03T09:50:54.588Z,1628.00
2019-01-03T09:51:54.584Z,1676.00
2019-01-03T09:52:54.547Z,1780.00
2019-01-03T09:53:54.472Z,1476.00
2019-01-03T09:54:54.466Z,1412.00
2019-01-03T09:55:54.344Z,1332.00
2019-01-03T09:56:54.352Z,1288.00
2019-01-03T09:57:54.223Z,1320.00
2019-01-03T09:58:54.310Z,1320.00
2019-01-03T09:59:54.226Z,1304.00
2019-01-03T10:00:54.104Z,1260.00
2019-01-03T10:01:54.102Z,1212.00
2019-01-03T10:02:53.994Z,1136.00
2019-01-03T10:03:53.985Z,1020.00
2019-01-03T10:04:53.987Z,1004.00
2019-01-03T10:05:53.864Z,1132.00
2019-01-03T10:06:53.867Z,1244.00
2019-01-03T10:07:53.749Z,1356.00
2019-01-03T10:08:53.749Z,1436.00
2019-01-03T10:09:53.741Z,1396.00
2019-01-03T10:10:53.624Z,1384.00
2019-01-03T10:11:53.628Z,1372.00
2019-01-03T10:12:53.503Z,1320.00
2019-01-03T10:13:53.502Z,1280.00
2019-01-03T10:14:53.549Z,1252.00
2019-01-03T10:15:53.385Z,1248.00
2019-01-03T10:16:53.383Z,1260.00
2019-01-03T10:17:53.265Z,1276.00
2019-01-03T10:18:53.264Z,1296.00
2019-01-03T10:19:53.269Z,1308.00
2019-01-03T10:20:53.147Z,1380.00
2019-01-03T10:21:53.141Z,1384.00
2019-01-03T10:22:53.021Z,1368.00
2019-01-03T10:23:53.028Z,1412.00
2019-01-03T10:24:53.070Z,1408.00
2019-01-03T10:25:52.907Z,1560.00
2019-01-03T10:26:52.916Z,1588.00
2019-01-03T10:27:52.779Z,1508.00
2019-01-03T10:28:52.783Z,1372.00
2019-01-03T10:29:52.781Z,1332.00
2019-01-03T10:30:52.660Z,1444.00
2019-01-03T10:31:52.668Z,1736.00
2019-01-03T10:32:52.546Z,1832.00
2019-01-03T10:33:52.671Z,1684.00
2019-01-03T10:34:52.526Z,1524.00
2019-01-03T10:35:52.420Z,1440.00
2019-01-03T10:36:52.435Z,1440.00
2019-01-03T10:37:52.295Z,1376.00
2019-01-03T10:38:52.294Z,1476.00
2019-01-03T10:39:52.176Z,1820.00
2019-01-03T10:40:52.175Z,2120.00
2019-01-03T10:41:52.233Z,2180.00
2019-01-03T10:42:52.056Z,2132.00
2019-01-03T10:43:52.060Z,1944.00
2019-01-03T10:44:51.934Z,1744.00
2019-01-03T10:45:52.014Z,1620.00
2019-01-03T10:46:51.934Z,1628.00
2019-01-03T10:47:51.819Z,1716.00
2019-01-03T10:48:51.823Z,1664.00
2019-01-03T10:49:51.808Z,1584.00
2019-01-03T10:50:51.696Z,1548.00
2019-01-03T10:51:51.695Z,1628.00
2019-01-03T10:52:51.572Z,1768.00
2019-01-03T10:53:51.572Z,2032.00
2019-01-03T10:54:51.455Z,2012.00
2019-01-03T10:55:51.452Z,1872.00
2019-01-03T10:56:51.457Z,1608.00
2019-01-03T10:57:51.335Z,1492.00
2019-01-03T10:58:51.332Z,1484.00
2019-01-03T10:59:51.213Z,1744.00
2019-01-03T11:00:51.217Z,1764.00
2019-01-03T11:01:51.211Z,1680.00
2019-01-03T11:02:51.097Z,1648.00
2019-01-03T11:03:51.089Z,1596.00
2019-01-03T11:04:50.971Z,1648.00
2019-01-03T11:05:50.969Z,1676.00
2019-01-03T11:06:50.969Z,1728.00
2019-01-03T11:07:50.852Z,1696.00
2019-01-03T11:08:50.849Z,1640.00
2019-01-03T11:09:50.811Z,1584.00
2019-01-03T11:10:50.729Z,1548.00
2019-01-03T11:11:50.729Z,1636.00
2019-01-03T11:12:50.610Z,1616.00
2019-01-03T11:13:50.614Z,1524.00
2019-01-03T11:14:50.575Z,1552.00
2019-01-03T11:15:50.495Z,1608.00
2019-01-03T11:16:50.494Z,1600.00
2019-01-03T11:17:50.368Z,1712.00
2019-01-03T11:18:50.373Z,1756.00
2019-01-03T11:19:50.246Z,1856.00
2019-01-03T11:20:50.246Z,1868.00
2019-01-03T11:21:50.248Z,1876.00
2019-01-03T11:22:50.130Z,1920.00
2019-01-03T11:23:50.132Z,2056.00
2019-01-03T11:24:50.013Z,2216.00
2019-01-03T11:25:50.004Z,2324.00
2019-01-03T11:26:50.007Z,2368.00
2019-01-03T11:27:49.886Z,2348.00
2019-01-03T11:28:49.885Z,2316.00
2019-01-03T11:29:49.777Z,2280.00
2019-01-03T11:30:49.764Z,2188.00
2019-01-03T11:31:49.766Z,2192.00
2019-01-03T11:32:49.648Z,2036.00
2019-01-03T11:33:49.644Z,2044.00
2019-01-03T11:34:49.530Z,2012.00
2019-01-03T11:35:49.521Z,1920.00
2019-01-03T11:36:50.404Z,1748.00
2019-01-03T11:37:49.409Z,1676.00
2019-01-03T11:38:49.409Z,1708.00
2019-01-03T11:39:49.286Z,1656.00
2019-01-03T11:40:49.281Z,1568.00
2019-01-03T11:41:49.282Z,1552.00
2019-01-03T11:42:49.159Z,1520.00
2019-01-03T11:43:49.173Z,1368.00
2019-01-03T11:44:49.176Z,1132.00
2019-01-03T11:45:49.041Z,1092.00
2019-01-03T11:46:49.048Z,1376.00
2019-01-03T11:47:49.006Z,1576.00
2019-01-03T11:48:48.929Z,1612.00
2019-01-03T11:49:48.799Z,1536.00
2019-01-03T11:50:48.799Z,1472.00
2019-01-03T11:51:48.797Z,1536.00
2019-01-03T11:52:48.681Z,1664.00
2019-01-03T11:53:48.678Z,1796.00
2019-01-03T11:54:48.652Z,1840.00
2019-01-03T11:55:48.557Z,1580.00
2019-01-03T11:56:48.575Z,1208.00
2019-01-03T11:57:48.444Z,1108.00
2019-01-03T11:58:48.444Z,1280.00
2019-01-03T11:59:48.316Z,1236.00
2019-01-03T12:00:48.323Z,1180.00
2019-01-03T12:01:48.315Z,1264.00
2019-01-03T12:02:48.200Z,1312.00
2019-01-03T12:03:48.194Z,1312.00
2019-01-03T12:04:48.074Z,1356.00
2019-01-03T12:05:48.076Z,1352.00
2019-01-03T12:06:48.076Z,1256.00
2019-01-03T12:07:47.954Z,1184.00
2019-01-03T12:08:47.961Z,1252.00
2019-01-03T12:09:47.838Z,1252.00
2019-01-03T12:10:47.835Z,1248.00
2019-01-03T12:11:47.846Z,1204.00
2019-01-03T12:12:47.717Z,1252.00
2019-01-03T12:13:47.724Z,1288.00
2019-01-03T12:14:47.594Z,1356.00
2019-01-03T12:15:47.596Z,1372.00
2019-01-03T12:16:47.598Z,1336.00
2019-01-03T12:17:47.478Z,1440.00
2019-01-03T12:18:47.483Z,1468.00
2019-01-03T12:20:47.355Z,1544.00
2019-01-03T12:21:47.351Z,1560.00
2019-01-03T12:22:47.235Z,1592.00
2019-01-03T12:23:47.242Z,1680.00
2019-01-03T12:24:47.111Z,1736.00
2019-01-03T12:25:47.110Z,1884.00
2019-01-03T12:26:47.110Z,2044.00
2019-01-03T12:27:46.990Z,2020.00
2019-01-03T12:28:46.990Z,1996.00
2019-01-03T12:29:46.873Z,1780.00
2019-01-03T12:30:46.871Z,1548.00
2019-01-03T12:31:46.875Z,1556.00
2019-01-03T12:32:46.753Z,1560.00
2019-01-03T12:33:46.753Z,1576.00
2019-01-03T12:34:47.677Z,1604.00
2019-01-03T12:35:46.713Z,1776.00
2019-01-03T12:36:46.716Z,1864.00
2019-01-03T12:37:46.507Z,1808.00
2019-01-03T12:38:46.521Z,1660.00
2019-01-03T12:39:46.389Z,1696.00
2019-01-03T12:40:46.392Z,1968.00
2019-01-03T12:41:46.469Z,2120.00
2019-01-03T12:42:46.267Z,2164.00
2019-01-03T12:43:46.286Z,2044.00
2019-01-03T12:44:46.151Z,1936.00
2019-01-03T12:45:46.159Z,1944.00
2019-01-03T12:46:46.145Z,1928.00
2019-01-03T12:47:46.029Z,1940.00
2019-01-03T12:48:46.029Z,1884.00
2019-01-03T12:49:45.918Z,1620.00
2019-01-03T12:50:45.907Z,1264.00